LEZL/SVQ METAR and TAF weather

Enter ICAO airport designator
Station Type Date Time Source
LEZL METAR 2019/08/22 20:00 UTC NOAA

LEZL 222000Z 18005KT 140V240 CAVOK 32/14 Q1014 NOSIG


Station Type Date Time Source
LEZL Decoded METAR 2019/08/22 20:00 UTC NOAA

Station name not available
Aug 22, 2019 - 04:00 PM EDT / 2019.08.22 2000 UTC
Wind: from the S (180 degrees) at 6 MPH (5 KT) (direction variable):0
Visibility: greater than 7 mile(s):0
Temperature: 89 F (32 C)
Dew Point: 57 F (14 C)
Relative Humidity: 33%
Pressure (altimeter): 29.94 in. Hg (1014 hPa)
ob: LEZL 222000Z 18005KT 140V240 CAVOK 32/14 Q1014 NOSIG
cycle: 20

Station Type Date Time Source
LEZL TAF 2019/08/22 15:27 UTC NOAA

TAF TAF LEZL 221400Z 2215/2315 09011KT CAVOK TX36/2215Z TN23/2306Z
TEMPO 2215/2218 10015G27KT
BECMG 2218/2221 21006KT
BECMG 2223/2302 03010KT
BECMG 2304/2306 09011KT

Example: see airport list